createdAt,value
2024-03-09T00:00:45.621Z,98988.16
2024-03-09T00:05:49.768Z,98983.75
2024-03-09T00:10:55.121Z,98994.84
2024-03-09T00:16:00.477Z,98992.19
2024-03-09T00:21:07.762Z,98990.28
2024-03-09T00:26:13.232Z,98987.72
2024-03-09T00:31:18.080Z,98993.34
2024-03-09T00:36:22.987Z,98994.50
2024-03-09T00:41:28.507Z,98993.94
2024-03-09T00:46:32.501Z,98989.34
2024-03-09T00:51:36.389Z,98993.78
2024-03-09T00:56:41.705Z,98995.91
2024-03-09T01:01:45.891Z,98995.84
2024-03-09T01:06:50.015Z,98996.84
2024-03-09T01:11:55.478Z,99001.00
2024-03-09T01:17:01.371Z,99008.09
2024-03-09T01:22:07.817Z,99011.66
2024-03-09T01:27:13.295Z,99009.88
2024-03-09T01:32:17.967Z,99008.25
2024-03-09T01:37:23.807Z,99013.59
2024-03-09T01:42:30.672Z,99022.44
2024-03-09T01:47:35.520Z,99022.44
2024-03-09T01:52:40.873Z,99032.22
2024-03-09T01:57:47.376Z,99034.47
2024-03-09T02:02:53.813Z,99041.91
2024-03-09T02:07:57.745Z,99044.53
2024-03-09T02:13:04.006Z,99048.34
2024-03-09T02:18:08.842Z,99047.38
2024-03-09T02:23:13.278Z,99048.44
2024-03-09T02:28:20.152Z,99049.03
2024-03-09T02:33:24.353Z,99043.56
2024-03-09T02:38:28.204Z,99042.44
2024-03-09T02:43:38.236Z,99039.91
2024-03-09T02:48:44.922Z,99035.31
2024-03-09T02:53:48.810Z,99043.00
2024-03-09T02:58:54.083Z,99049.09
2024-03-09T03:04:00.371Z,99057.63
2024-03-09T03:09:13.650Z,99055.69
2024-03-09T03:14:19.571Z,99063.75
2024-03-09T03:19:24.159Z,99065.22
2024-03-09T03:24:28.014Z,99082.66
2024-03-09T03:29:34.272Z,99080.19
2024-03-09T03:34:39.126Z,99077.28
2024-03-09T03:39:42.619Z,99086.50
2024-03-09T03:44:47.859Z,99080.97
2024-03-09T03:49:52.321Z,99085.41
2024-03-09T03:54:57.203Z,99086.41
2024-03-09T04:00:02.151Z,99083.38
2024-03-09T04:05:06.630Z,99085.63
2024-03-09T04:10:15.635Z,99090.81
2024-03-09T04:15:21.075Z,99096.09
2024-03-09T04:20:28.563Z,99093.47
2024-03-09T04:25:34.296Z,99096.50
2024-03-09T04:30:40.312Z,99113.44
2024-03-09T04:35:46.593Z,99108.59
2024-03-09T04:40:51.866Z,99109.69
2024-03-09T04:45:57.430Z,99120.56
2024-03-09T04:51:02.486Z,99125.47
2024-03-09T04:56:07.749Z,99139.69
2024-03-09T05:01:13.169Z,99133.31
2024-03-09T05:06:17.269Z,99138.22
2024-03-09T05:11:21.174Z,99140.31
2024-03-09T05:16:26.724Z,99141.34
2024-03-09T05:21:35.636Z,99135.69
2024-03-09T05:26:44.257Z,99126.78
2024-03-09T05:31:49.888Z,99147.63
2024-03-09T05:36:54.666Z,99134.91
2024-03-09T05:41:58.778Z,99147.97
2024-03-09T05:47:04.461Z,99142.53
2024-03-09T05:52:09.392Z,99155.44
2024-03-09T05:57:13.177Z,99168.38
2024-03-09T06:02:18.592Z,99180.84
2024-03-09T06:07:22.498Z,99175.84
2024-03-09T06:12:26.934Z,99176.00
2024-03-09T06:17:32.633Z,99178.00
2024-03-09T06:22:36.738Z,99171.91
2024-03-09T06:27:40.851Z,99161.34
2024-03-09T06:32:46.468Z,99164.69
2024-03-09T06:37:58.024Z,99161.59
2024-03-09T06:43:02.498Z,99164.88
2024-03-09T06:48:08.619Z,99156.25
2024-03-09T06:53:12.835Z,99156.28
2024-03-09T06:58:16.735Z,99161.72
2024-03-09T07:03:22.053Z,99159.69
2024-03-09T07:08:27.202Z,99158.69
2024-03-09T07:13:31.211Z,99167.38
2024-03-09T07:18:38.391Z,99163.41
2024-03-09T07:23:42.542Z,99165.88
2024-03-09T07:28:46.481Z,99170.03
2024-03-09T07:33:54.718Z,99179.00
2024-03-09T07:38:58.608Z,99175.56
2024-03-09T07:44:03.288Z,99179.53
2024-03-09T07:49:09.157Z,99175.56
2024-03-09T07:54:13.091Z,99178.63
2024-03-09T07:59:18.784Z,99178.28
2024-03-09T08:04:24.142Z,99170.72
2024-03-09T08:09:29.629Z,99176.97
2024-03-09T08:14:35.513Z,99176.25
2024-03-09T08:19:41.097Z,99175.91
2024-03-09T08:24:45.246Z,99183.91
2024-03-09T08:29:51.545Z,99171.13
2024-03-09T08:34:57.147Z,99179.88
2024-03-09T08:40:01.070Z,99179.41
2024-03-09T08:45:07.458Z,99192.28
2024-03-09T08:50:13.357Z,99184.91
2024-03-09T08:55:17.965Z,99178.81
2024-03-09T09:00:27.028Z,99189.34
2024-03-09T09:05:33.085Z,99180.78
2024-03-09T09:10:37.581Z,99190.72
2024-03-09T09:15:44.021Z,99197.13
2024-03-09T09:20:49.996Z,99193.94
2024-03-09T09:25:54.037Z,99202.47
2024-03-09T09:30:57.928Z,99199.97
2024-03-09T09:36:03.166Z,99207.59
2024-03-09T09:41:08.106Z,99200.78
2024-03-09T09:46:13.742Z,99199.19
2024-03-09T09:51:21.624Z,99197.09
2024-03-09T09:56:25.634Z,99197.00
2024-03-09T10:01:29.742Z,99203.59
2024-03-09T10:06:35.060Z,99207.66
2024-03-09T10:11:56.380Z,99200.63
2024-03-09T10:17:11.132Z,99191.91
2024-03-09T10:22:17.107Z,99191.91
2024-03-09T10:27:22.938Z,99183.63
2024-03-09T10:32:28.040Z,99191.41
2024-03-09T10:37:33.816Z,99183.69
2024-03-09T10:42:44.955Z,99189.31
2024-03-09T10:47:54.538Z,99178.88
2024-03-09T10:53:20.734Z,99186.16
2024-03-09T10:58:27.741Z,99191.41
2024-03-09T11:03:33.889Z,99190.38
2024-03-09T11:08:39.963Z,99186.84
2024-03-09T11:13:45.896Z,99207.66
2024-03-09T11:18:58.004Z,99198.00
2024-03-09T11:24:09.799Z,99192.22
2024-03-09T11:29:14.043Z,99194.09
2024-03-09T11:34:22.939Z,99194.97
2024-03-09T11:39:31.288Z,99193.59
2024-03-09T11:44:35.516Z,99190.69
2024-03-09T11:49:42.078Z,99198.03
2024-03-09T11:54:51.148Z,99195.06
2024-03-09T11:59:55.534Z,99202.97
2024-03-09T12:04:59.553Z,99194.38
2024-03-09T12:10:05.670Z,99207.19
2024-03-09T12:15:11.197Z,99171.44
2024-03-09T12:20:15.819Z,99209.44
2024-03-09T12:25:21.093Z,99200.31
2024-03-09T12:30:25.688Z,99195.72
2024-03-09T12:35:30.415Z,99197.78
2024-03-09T12:40:35.821Z,99198.19
2024-03-09T12:45:41.021Z,99194.00
2024-03-09T12:50:44.928Z,99188.44
2024-03-09T12:55:52.369Z,99188.53
2024-03-09T13:01:13.365Z,99188.06
2024-03-09T13:06:17.285Z,99190.22
2024-03-09T13:11:23.298Z,99176.84
2024-03-09T13:16:27.319Z,99178.31
2024-03-09T13:21:31.446Z,99188.91
2024-03-09T13:26:36.720Z,99185.34
2024-03-09T13:31:40.669Z,99185.19
2024-03-09T13:36:44.820Z,99183.88
2024-03-09T13:41:50.482Z,99190.38
2024-03-09T13:46:54.452Z,99195.69
2024-03-09T13:52:01.159Z,99196.22
2024-03-09T13:57:07.464Z,99197.53
2024-03-09T14:02:14.718Z,99203.63
2024-03-09T14:07:23.083Z,99202.41
2024-03-09T14:12:28.683Z,99205.50
2024-03-09T14:17:33.148Z,99205.81
2024-03-09T14:22:37.062Z,99203.44
2024-03-09T14:27:42.495Z,99207.78
2024-03-09T14:32:48.326Z,99191.75
2024-03-09T14:37:54.998Z,99209.28
2024-03-09T14:43:03.791Z,99204.06
2024-03-09T14:48:10.947Z,99207.00
2024-03-09T14:53:16.108Z,99203.09
2024-03-09T14:58:21.500Z,99196.78
2024-03-09T15:03:33.694Z,99195.88
2024-03-09T15:08:38.781Z,99200.41
2024-03-09T15:14:02.486Z,99197.50
2024-03-09T15:19:06.297Z,99204.75
2024-03-09T15:24:12.563Z,99202.59
2024-03-09T15:29:17.944Z,99202.22
2024-03-09T15:34:21.955Z,99201.78
2024-03-09T15:39:28.178Z,99209.03
2024-03-09T15:44:33.809Z,99211.84
2024-03-09T15:49:37.932Z,99209.03
2024-03-09T15:54:43.539Z,99209.59
2024-03-09T15:59:49.106Z,99213.91
2024-03-09T16:04:53.821Z,99222.50
2024-03-09T16:09:57.923Z,99225.34
2024-03-09T16:15:05.474Z,99228.22
2024-03-09T16:20:10.166Z,99226.06
2024-03-09T16:25:14.399Z,99220.75
2024-03-09T16:30:30.083Z,99219.16
2024-03-09T16:35:34.351Z,99226.06
2024-03-09T16:40:41.312Z,99220.75
2024-03-09T16:45:46.770Z,99225.75
2024-03-09T16:50:51.156Z,99229.91
2024-03-09T16:55:55.260Z,99222.41
2024-03-09T17:01:06.184Z,99219.31
2024-03-09T17:06:11.318Z,99215.41
2024-03-09T17:11:15.936Z,99219.59
2024-03-09T17:16:21.216Z,99217.84
2024-03-09T17:21:25.932Z,99224.63
2024-03-09T17:26:33.910Z,99219.88
2024-03-09T17:31:39.740Z,99226.63
2024-03-09T17:36:44.162Z,99233.63
2024-03-09T17:41:48.148Z,99221.56
2024-03-09T17:46:56.888Z,99227.31
2024-03-09T17:52:00.720Z,99211.31
2024-03-09T17:57:04.713Z,99222.41
2024-03-09T18:02:10.543Z,99214.22
2024-03-09T18:07:14.454Z,99221.84
2024-03-09T18:12:19.028Z,99219.84
2024-03-09T18:17:24.246Z,99223.38
2024-03-09T18:22:28.344Z,99222.94
2024-03-09T18:27:32.807Z,99224.88
2024-03-09T18:32:38.918Z,99222.97
2024-03-09T18:37:45.172Z,99227.94
2024-03-09T18:42:51.604Z,99221.91
2024-03-09T18:47:59.008Z,99230.72
2024-03-09T18:53:03.490Z,99221.03
2024-03-09T18:58:10.136Z,99200.25
2024-03-09T19:03:16.352Z,99237.38
2024-03-09T19:08:23.340Z,99228.84
2024-03-09T19:13:27.231Z,99229.69
2024-03-09T19:18:50.264Z,99239.06
2024-03-09T19:23:54.290Z,99231.38
2024-03-09T19:28:58.230Z,99246.84
2024-03-09T19:34:03.749Z,99237.56
2024-03-09T19:39:10.639Z,99239.16
2024-03-09T19:44:15.420Z,99243.88
2024-03-09T19:49:21.384Z,99246.84
2024-03-09T19:54:25.301Z,99245.94
2024-03-09T19:59:29.288Z,99248.56
2024-03-09T20:04:38.453Z,99247.34
2024-03-09T20:09:43.074Z,99253.03
2024-03-09T20:14:46.995Z,99239.91
2024-03-09T20:19:54.173Z,99239.31
2024-03-09T20:25:00.402Z,99240.34
2024-03-09T20:30:04.310Z,99229.69
2024-03-09T20:35:12.589Z,99228.28
2024-03-09T20:40:19.462Z,99222.34
2024-03-09T20:45:24.718Z,99217.28
2024-03-09T20:50:31.152Z,99214.13
2024-03-09T20:55:35.060Z,99211.50
2024-03-09T21:00:39.442Z,99211.16
2024-03-09T21:05:44.842Z,99211.84
2024-03-09T21:10:51.510Z,99201.38
2024-03-09T21:15:56.385Z,99206.03
2024-03-09T21:21:02.664Z,99206.28
2024-03-09T21:26:06.649Z,99209.34
2024-03-09T21:31:11.001Z,99218.41
2024-03-09T21:36:16.322Z,99217.31
2024-03-09T21:41:20.618Z,99213.44
2024-03-09T21:46:24.965Z,99220.78
2024-03-09T21:51:30.328Z,99223.56
2024-03-09T21:56:34.979Z,99222.88
2024-03-09T22:01:38.617Z,99233.91
2024-03-09T22:06:45.274Z,99238.97
2024-03-09T22:11:49.817Z,99232.41
2024-03-09T22:16:53.774Z,99236.28
2024-03-09T22:21:58.943Z,99228.75
2024-03-09T22:27:02.791Z,99230.13
2024-03-09T22:32:07.063Z,99226.72
2024-03-09T22:37:13.366Z,99234.84
2024-03-09T22:42:17.599Z,99218.16
2024-03-09T22:47:22.162Z,99229.69
2024-03-09T22:52:27.625Z,99225.25
2024-03-09T22:57:31.764Z,99231.81
2024-03-09T23:02:35.654Z,99233.56
2024-03-09T23:07:41.073Z,99227.25
2024-03-09T23:12:45.625Z,99226.91
2024-03-09T23:17:53.509Z,99224.09
2024-03-09T23:23:00.504Z,99226.69
2024-03-09T23:28:08.642Z,99217.63
2024-03-09T23:33:12.521Z,99214.06
2024-03-09T23:38:19.598Z,99212.38
2024-03-09T23:43:23.572Z,99213.78
2024-03-09T23:48:28.246Z,99219.72
2024-03-09T23:53:35.388Z,99207.13
2024-03-09T23:58:40.933Z,99209.72
